sensor_id;sensor_type;location;lat;lon;timestamp;P1;durP1;ratioP1;P2;durP2;ratioP2
12970;SDS011;6550;48.650;8.774;2023-08-30T00:00:48;2.50;;;1.70;;
12970;SDS011;6550;48.650;8.774;2023-08-30T00:03:17;4.93;;;1.80;;
12970;SDS011;6550;48.650;8.774;2023-08-30T00:05:44;5.37;;;1.60;;
12970;SDS011;6550;48.650;8.774;2023-08-30T00:08:11;12.97;;;2.30;;
12970;SDS011;6550;48.650;8.774;2023-08-30T00:10:39;3.53;;;1.53;;
12970;SDS011;6550;48.650;8.774;2023-08-30T00:13:11;3.05;;;1.60;;
12970;SDS011;6550;48.650;8.774;2023-08-30T00:15:38;3.17;;;1.60;;
12970;SDS011;6550;48.650;8.774;2023-08-30T00:18:05;6.47;;;1.73;;
12970;SDS011;6550;48.650;8.774;2023-08-30T00:20:33;1.97;;;1.57;;
12970;SDS011;6550;48.650;8.774;2023-08-30T00:23:02;9.83;;;1.97;;
12970;SDS011;6550;48.650;8.774;2023-08-30T00:25:31;7.13;;;1.90;;
12970;SDS011;6550;48.650;8.774;2023-08-30T00:27:57;3.33;;;1.57;;
12970;SDS011;6550;48.650;8.774;2023-08-30T00:30:24;2.70;;;1.47;;
12970;SDS011;6550;48.650;8.774;2023-08-30T00:32:51;2.40;;;1.73;;
12970;SDS011;6550;48.650;8.774;2023-08-30T00:35:18;3.57;;;1.60;;
12970;SDS011;6550;48.650;8.774;2023-08-30T00:37:44;1.40;;;1.30;;
12970;SDS011;6550;48.650;8.774;2023-08-30T00:40:13;1.80;;;1.70;;
12970;SDS011;6550;48.650;8.774;2023-08-30T00:42:40;3.33;;;1.67;;
12970;SDS011;6550;48.650;8.774;2023-08-30T00:45:07;2.00;;;1.90;;
12970;SDS011;6550;48.650;8.774;2023-08-30T00:47:36;1.37;;;1.27;;
12970;SDS011;6550;48.650;8.774;2023-08-30T00:50:06;1.73;;;1.63;;
12970;SDS011;6550;48.650;8.774;2023-08-30T00:52:33;1.83;;;1.73;;
12970;SDS011;6550;48.650;8.774;2023-08-30T00:55:00;2.95;;;1.67;;
12970;SDS011;6550;48.650;8.774;2023-08-30T00:57:27;1.63;;;1.53;;
12970;SDS011;6550;48.650;8.774;2023-08-30T00:59:58;1.73;;;1.63;;
12970;SDS011;6550;48.650;8.774;2023-08-30T01:02:31;2.43;;;1.33;;
12970;SDS011;6550;48.650;8.774;2023-08-30T01:05:01;1.50;;;1.40;;
12970;SDS011;6550;48.650;8.774;2023-08-30T01:07:29;3.00;;;2.03;;
12970;SDS011;6550;48.650;8.774;2023-08-30T01:09:56;1.70;;;1.60;;
12970;SDS011;6550;48.650;8.774;2023-08-30T01:12:34;1.67;;;1.57;;
12970;SDS011;6550;48.650;8.774;2023-08-30T01:15:13;1.70;;;1.60;;
12970;SDS011;6550;48.650;8.774;2023-08-30T01:17:44;1.90;;;1.80;;
12970;SDS011;6550;48.650;8.774;2023-08-30T01:20:20;1.53;;;1.43;;
12970;SDS011;6550;48.650;8.774;2023-08-30T01:25:27;3.53;;;1.40;;
12970;SDS011;6550;48.650;8.774;2023-08-30T01:28:07;4.87;;;1.80;;
12970;SDS011;6550;48.650;8.774;2023-08-30T01:30:39;4.53;;;2.40;;
12970;SDS011;6550;48.650;8.774;2023-08-30T01:33:13;1.67;;;1.50;;
12970;SDS011;6550;48.650;8.774;2023-08-30T01:35:45;1.85;;;1.70;;
12970;SDS011;6550;48.650;8.774;2023-08-30T01:38:12;4.63;;;1.97;;
12970;SDS011;6550;48.650;8.774;2023-08-30T01:40:41;2.40;;;2.00;;
12970;SDS011;6550;48.650;8.774;2023-08-30T01:43:09;2.20;;;2.00;;
12970;SDS011;6550;48.650;8.774;2023-08-30T01:45:40;2.23;;;2.00;;
12970;SDS011;6550;48.650;8.774;2023-08-30T01:48:13;4.63;;;2.13;;
12970;SDS011;6550;48.650;8.774;2023-08-30T01:50:43;2.57;;;2.10;;
12970;SDS011;6550;48.650;8.774;2023-08-30T01:53:13;2.27;;;2.10;;
12970;SDS011;6550;48.650;8.774;2023-08-30T01:55:40;2.37;;;1.80;;
12970;SDS011;6550;48.650;8.774;2023-08-30T01:58:11;3.40;;;2.00;;
12970;SDS011;6550;48.650;8.774;2023-08-30T02:00:40;2.07;;;1.90;;
12970;SDS011;6550;48.650;8.774;2023-08-30T02:03:10;2.20;;;2.00;;
12970;SDS011;6550;48.650;8.774;2023-08-30T02:05:43;3.10;;;2.30;;
12970;SDS011;6550;48.650;8.774;2023-08-30T02:08:17;2.67;;;1.90;;
12970;SDS011;6550;48.650;8.774;2023-08-30T02:10:56;2.33;;;2.13;;
12970;SDS011;6550;48.650;8.774;2023-08-30T02:13:26;4.10;;;1.87;;
12970;SDS011;6550;48.650;8.774;2023-08-30T02:15:59;2.73;;;1.73;;
12970;SDS011;6550;48.650;8.774;2023-08-30T02:18:27;2.77;;;1.90;;
12970;SDS011;6550;48.650;8.774;2023-08-30T02:20:54;3.27;;;1.90;;
12970;SDS011;6550;48.650;8.774;2023-08-30T02:23:23;3.00;;;2.00;;
12970;SDS011;6550;48.650;8.774;2023-08-30T02:25:51;3.80;;;2.00;;
12970;SDS011;6550;48.650;8.774;2023-08-30T02:28:20;2.03;;;1.90;;
12970;SDS011;6550;48.650;8.774;2023-08-30T02:30:47;1.90;;;1.80;;
12970;SDS011;6550;48.650;8.774;2023-08-30T02:33:14;2.90;;;1.97;;
12970;SDS011;6550;48.650;8.774;2023-08-30T02:35:40;3.80;;;1.83;;
12970;SDS011;6550;48.650;8.774;2023-08-30T02:38:09;2.53;;;2.00;;
12970;SDS011;6550;48.650;8.774;2023-08-30T02:40:37;2.13;;;1.98;;
12970;SDS011;6550;48.650;8.774;2023-08-30T02:43:03;2.20;;;2.10;;
12970;SDS011;6550;48.650;8.774;2023-08-30T02:45:32;3.10;;;2.43;;
12970;SDS011;6550;48.650;8.774;2023-08-30T02:48:04;2.20;;;1.90;;
12970;SDS011;6550;48.650;8.774;2023-08-30T02:50:31;1.97;;;1.87;;
12970;SDS011;6550;48.650;8.774;2023-08-30T02:53:00;3.00;;;2.07;;
12970;SDS011;6550;48.650;8.774;2023-08-30T02:55:27;2.13;;;1.90;;
12970;SDS011;6550;48.650;8.774;2023-08-30T02:57:54;2.43;;;2.23;;
12970;SDS011;6550;48.650;8.774;2023-08-30T03:00:20;2.50;;;2.00;;
12970;SDS011;6550;48.650;8.774;2023-08-30T03:02:47;2.27;;;2.07;;
12970;SDS011;6550;48.650;8.774;2023-08-30T03:05:15;2.03;;;1.93;;
12970;SDS011;6550;48.650;8.774;2023-08-30T03:07:44;2.03;;;1.93;;
12970;SDS011;6550;48.650;8.774;2023-08-30T03:10:11;2.27;;;2.17;;
12970;SDS011;6550;48.650;8.774;2023-08-30T03:12:38;2.60;;;2.40;;
12970;SDS011;6550;48.650;8.774;2023-08-30T03:15:05;2.47;;;2.27;;
12970;SDS011;6550;48.650;8.774;2023-08-30T03:17:36;2.00;;;1.90;;
12970;SDS011;6550;48.650;8.774;2023-08-30T03:20:03;2.17;;;2.07;;
12970;SDS011;6550;48.650;8.774;2023-08-30T03:22:33;2.30;;;2.10;;
12970;SDS011;6550;48.650;8.774;2023-08-30T03:24:59;2.70;;;2.10;;
12970;SDS011;6550;48.650;8.774;2023-08-30T03:27:32;3.87;;;1.67;;
12970;SDS011;6550;48.650;8.774;2023-08-30T03:30:02;4.90;;;2.20;;
12970;SDS011;6550;48.650;8.774;2023-08-30T03:32:29;1.80;;;1.70;;
12970;SDS011;6550;48.650;8.774;2023-08-30T03:34:58;95.13;;;6.20;;
12970;SDS011;6550;48.650;8.774;2023-08-30T03:37:28;75.07;;;7.87;;
12970;SDS011;6550;48.650;8.774;2023-08-30T03:39:59;13.50;;;2.90;;
12970;SDS011;6550;48.650;8.774;2023-08-30T03:42:28;20.00;;;3.38;;
12970;SDS011;6550;48.650;8.774;2023-08-30T03:44:55;4.03;;;2.17;;
12970;SDS011;6550;48.650;8.774;2023-08-30T03:47:22;5.10;;;2.47;;
12970;SDS011;6550;48.650;8.774;2023-08-30T03:49:51;3.40;;;1.97;;
12970;SDS011;6550;48.650;8.774;2023-08-30T03:52:17;3.17;;;2.10;;
12970;SDS011;6550;48.650;8.774;2023-08-30T03:54:47;2.50;;;2.30;;
12970;SDS011;6550;48.650;8.774;2023-08-30T03:57:13;2.20;;;2.07;;
12970;SDS011;6550;48.650;8.774;2023-08-30T03:59:42;4.13;;;2.47;;
12970;SDS011;6550;48.650;8.774;2023-08-30T04:02:15;3.77;;;2.27;;
12970;SDS011;6550;48.650;8.774;2023-08-30T04:04:42;2.60;;;2.08;;
12970;SDS011;6550;48.650;8.774;2023-08-30T04:07:11;3.77;;;2.43;;
12970;SDS011;6550;48.650;8.774;2023-08-30T04:09:38;4.73;;;2.30;;
12970;SDS011;6550;48.650;8.774;2023-08-30T04:12:05;2.00;;;1.90;;
12970;SDS011;6550;48.650;8.774;2023-08-30T04:14:32;2.20;;;2.00;;
12970;SDS011;6550;48.650;8.774;2023-08-30T04:16:58;2.23;;;2.03;;
12970;SDS011;6550;48.650;8.774;2023-08-30T04:19:28;2.40;;;2.20;;
12970;SDS011;6550;48.650;8.774;2023-08-30T04:21:57;3.05;;;2.60;;
12970;SDS011;6550;48.650;8.774;2023-08-30T04:24:25;7.43;;;2.13;;
12970;SDS011;6550;48.650;8.774;2023-08-30T04:26:56;1.93;;;1.70;;
12970;SDS011;6550;48.650;8.774;2023-08-30T04:29:25;2.43;;;2.20;;
12970;SDS011;6550;48.650;8.774;2023-08-30T04:31:52;2.20;;;1.93;;
12970;SDS011;6550;48.650;8.774;2023-08-30T04:34:20;2.10;;;1.90;;
12970;SDS011;6550;48.650;8.774;2023-08-30T04:36:48;3.47;;;1.87;;
12970;SDS011;6550;48.650;8.774;2023-08-30T04:39:15;2.47;;;2.27;;
12970;SDS011;6550;48.650;8.774;2023-08-30T04:41:42;2.83;;;2.20;;
12970;SDS011;6550;48.650;8.774;2023-08-30T04:44:09;2.40;;;2.20;;
12970;SDS011;6550;48.650;8.774;2023-08-30T04:46:38;2.72;;;2.25;;
12970;SDS011;6550;48.650;8.774;2023-08-30T04:49:07;2.07;;;1.97;;
12970;SDS011;6550;48.650;8.774;2023-08-30T04:51:34;3.47;;;2.00;;
12970;SDS011;6550;48.650;8.774;2023-08-30T04:54:00;2.53;;;2.10;;
12970;SDS011;6550;48.650;8.774;2023-08-30T04:56:27;2.70;;;2.47;;
12970;SDS011;6550;48.650;8.774;2023-08-30T04:58:56;3.33;;;2.60;;
12970;SDS011;6550;48.650;8.774;2023-08-30T05:01:23;2.20;;;1.93;;
12970;SDS011;6550;48.650;8.774;2023-08-30T05:03:52;2.88;;;2.08;;
12970;SDS011;6550;48.650;8.774;2023-08-30T05:06:22;2.53;;;2.30;;
12970;SDS011;6550;48.650;8.774;2023-08-30T05:08:48;3.03;;;2.20;;
12970;SDS011;6550;48.650;8.774;2023-08-30T05:11:15;2.67;;;2.47;;
12970;SDS011;6550;48.650;8.774;2023-08-30T05:13:42;2.80;;;2.30;;
12970;SDS011;6550;48.650;8.774;2023-08-30T05:16:09;2.30;;;2.10;;
12970;SDS011;6550;48.650;8.774;2023-08-30T05:18:38;2.23;;;2.10;;
12970;SDS011;6550;48.650;8.774;2023-08-30T05:21:05;2.60;;;2.40;;
12970;SDS011;6550;48.650;8.774;2023-08-30T05:23:31;2.33;;;2.13;;
12970;SDS011;6550;48.650;8.774;2023-08-30T05:25:58;4.38;;;2.20;;
12970;SDS011;6550;48.650;8.774;2023-08-30T05:28:25;2.83;;;2.00;;
12970;SDS011;6550;48.650;8.774;2023-08-30T05:30:52;3.07;;;2.20;;
12970;SDS011;6550;48.650;8.774;2023-08-30T05:33:21;4.17;;;2.10;;
12970;SDS011;6550;48.650;8.774;2023-08-30T05:35:50;2.80;;;2.17;;
12970;SDS011;6550;48.650;8.774;2023-08-30T05:38:17;2.63;;;2.43;;
12970;SDS011;6550;48.650;8.774;2023-08-30T05:40:44;3.57;;;2.83;;
12970;SDS011;6550;48.650;8.774;2023-08-30T05:43:11;2.37;;;2.17;;
12970;SDS011;6550;48.650;8.774;2023-08-30T05:45:41;3.35;;;2.20;;
12970;SDS011;6550;48.650;8.774;2023-08-30T05:48:08;3.07;;;2.23;;
12970;SDS011;6550;48.650;8.774;2023-08-30T05:50:35;2.67;;;2.43;;
12970;SDS011;6550;48.650;8.774;2023-08-30T05:53:02;2.97;;;2.60;;
12970;SDS011;6550;48.650;8.774;2023-08-30T05:55:32;2.67;;;2.47;;
12970;SDS011;6550;48.650;8.774;2023-08-30T05:57:59;4.03;;;2.03;;
12970;SDS011;6550;48.650;8.774;2023-08-30T06:00:25;3.40;;;2.03;;
12970;SDS011;6550;48.650;8.774;2023-08-30T06:02:52;3.60;;;2.17;;
12970;SDS011;6550;48.650;8.774;2023-08-30T06:05:22;2.40;;;2.10;;
12970;SDS011;6550;48.650;8.774;2023-08-30T06:07:49;1.98;;;1.88;;
12970;SDS011;6550;48.650;8.774;2023-08-30T06:10:16;2.37;;;2.17;;
12970;SDS011;6550;48.650;8.774;2023-08-30T06:12:43;2.20;;;1.90;;
12970;SDS011;6550;48.650;8.774;2023-08-30T06:15:10;2.50;;;2.30;;
12970;SDS011;6550;48.650;8.774;2023-08-30T06:17:39;2.10;;;1.90;;
12970;SDS011;6550;48.650;8.774;2023-08-30T06:20:06;3.70;;;2.40;;
12970;SDS011;6550;48.650;8.774;2023-08-30T06:22:33;2.50;;;2.10;;
12970;SDS011;6550;48.650;8.774;2023-08-30T06:25:02;1.80;;;1.70;;
12970;SDS011;6550;48.650;8.774;2023-08-30T06:27:30;2.37;;;2.10;;
12970;SDS011;6550;48.650;8.774;2023-08-30T06:29:57;2.30;;;2.10;;
12970;SDS011;6550;48.650;8.774;2023-08-30T06:32:24;1.80;;;1.70;;
12970;SDS011;6550;48.650;8.774;2023-08-30T06:34:51;2.47;;;2.27;;
12970;SDS011;6550;48.650;8.774;2023-08-30T06:37:18;1.97;;;1.80;;
12970;SDS011;6550;48.650;8.774;2023-08-30T06:39:45;1.70;;;1.60;;
12970;SDS011;6550;48.650;8.774;2023-08-30T06:42:11;2.20;;;2.03;;
12970;SDS011;6550;48.650;8.774;2023-08-30T06:44:38;2.07;;;1.97;;
12970;SDS011;6550;48.650;8.774;2023-08-30T06:47:06;2.40;;;2.00;;
12970;SDS011;6550;48.650;8.774;2023-08-30T06:49:36;2.08;;;1.98;;
12970;SDS011;6550;48.650;8.774;2023-08-30T06:52:02;2.57;;;2.00;;
12970;SDS011;6550;48.650;8.774;2023-08-30T06:54:33;2.37;;;2.17;;
12970;SDS011;6550;48.650;8.774;2023-08-30T06:57:03;1.97;;;1.87;;
12970;SDS011;6550;48.650;8.774;2023-08-30T06:59:30;2.00;;;1.90;;
12970;SDS011;6550;48.650;8.774;2023-08-30T07:01:59;1.67;;;1.57;;
12970;SDS011;6550;48.650;8.774;2023-08-30T07:04:28;2.10;;;2.00;;
12970;SDS011;6550;48.650;8.774;2023-08-30T07:06:56;2.00;;;1.90;;
12970;SDS011;6550;48.650;8.774;2023-08-30T07:09:22;2.83;;;1.98;;
12970;SDS011;6550;48.650;8.774;2023-08-30T07:11:55;1.73;;;1.63;;
12970;SDS011;6550;48.650;8.774;2023-08-30T07:14:22;1.60;;;1.50;;
12970;SDS011;6550;48.650;8.774;2023-08-30T07:16:49;2.00;;;1.70;;
12970;SDS011;6550;48.650;8.774;2023-08-30T07:19:19;1.70;;;1.60;;
12970;SDS011;6550;48.650;8.774;2023-08-30T07:21:46;3.67;;;2.00;;
12970;SDS011;6550;48.650;8.774;2023-08-30T07:24:16;1.60;;;1.50;;
12970;SDS011;6550;48.650;8.774;2023-08-30T07:26:48;1.77;;;1.67;;
12970;SDS011;6550;48.650;8.774;2023-08-30T07:29:15;1.53;;;1.43;;
12970;SDS011;6550;48.650;8.774;2023-08-30T07:31:42;1.70;;;1.60;;
12970;SDS011;6550;48.650;8.774;2023-08-30T07:34:11;1.60;;;1.50;;
12970;SDS011;6550;48.650;8.774;2023-08-30T07:36:40;2.00;;;1.73;;
12970;SDS011;6550;48.650;8.774;2023-08-30T07:39:13;1.50;;;1.30;;
12970;SDS011;6550;48.650;8.774;2023-08-30T07:41:41;1.73;;;1.63;;
12970;SDS011;6550;48.650;8.774;2023-08-30T07:44:07;1.70;;;1.60;;
12970;SDS011;6550;48.650;8.774;2023-08-30T07:46:35;1.53;;;1.43;;
12970;SDS011;6550;48.650;8.774;2023-08-30T07:49:04;1.73;;;1.30;;
12970;SDS011;6550;48.650;8.774;2023-08-30T07:51:31;1.87;;;1.63;;
12970;SDS011;6550;48.650;8.774;2023-08-30T07:54:00;1.50;;;1.40;;
12970;SDS011;6550;48.650;8.774;2023-08-30T07:56:30;1.33;;;1.23;;
12970;SDS011;6550;48.650;8.774;2023-08-30T07:59:00;1.30;;;1.20;;
12970;SDS011;6550;48.650;8.774;2023-08-30T08:01:26;2.47;;;1.40;;
12970;SDS011;6550;48.650;8.774;2023-08-30T08:03:56;1.63;;;1.53;;
12970;SDS011;6550;48.650;8.774;2023-08-30T08:06:33;1.30;;;1.20;;
12970;SDS011;6550;48.650;8.774;2023-08-30T08:09:03;1.60;;;1.50;;
12970;SDS011;6550;48.650;8.774;2023-08-30T08:11:33;1.50;;;1.40;;
12970;SDS011;6550;48.650;8.774;2023-08-30T08:14:00;1.35;;;1.30;;
12970;SDS011;6550;48.650;8.774;2023-08-30T08:16:28;5.03;;;1.30;;
12970;SDS011;6550;48.650;8.774;2023-08-30T08:18:55;1.40;;;1.30;;
12970;SDS011;6550;48.650;8.774;2023-08-30T08:21:25;1.80;;;1.70;;
12970;SDS011;6550;48.650;8.774;2023-08-30T08:23:51;3.33;;;1.43;;
12970;SDS011;6550;48.650;8.774;2023-08-30T08:26:18;1.20;;;1.20;;
12970;SDS011;6550;48.650;8.774;2023-08-30T08:28:45;3.33;;;1.40;;
12970;SDS011;6550;48.650;8.774;2023-08-30T08:31:13;1.58;;;1.48;;
12970;SDS011;6550;48.650;8.774;2023-08-30T08:33:41;1.50;;;1.40;;
12970;SDS011;6550;48.650;8.774;2023-08-30T08:36:10;1.33;;;1.20;;
12970;SDS011;6550;48.650;8.774;2023-08-30T08:38:37;1.23;;;1.23;;
12970;SDS011;6550;48.650;8.774;2023-08-30T08:41:05;1.23;;;1.23;;
12970;SDS011;6550;48.650;8.774;2023-08-30T08:43:35;3.80;;;1.17;;
12970;SDS011;6550;48.650;8.774;2023-08-30T08:46:03;1.30;;;1.20;;
12970;SDS011;6550;48.650;8.774;2023-08-30T08:48:33;2.40;;;1.37;;
12970;SDS011;6550;48.650;8.774;2023-08-30T08:51:08;1.43;;;1.33;;
12970;SDS011;6550;48.650;8.774;2023-08-30T08:53:36;1.57;;;1.47;;
12970;SDS011;6550;48.650;8.774;2023-08-30T08:56:09;1.13;;;1.13;;
12970;SDS011;6550;48.650;8.774;2023-08-30T08:58:39;1.73;;;1.37;;
12970;SDS011;6550;48.650;8.774;2023-08-30T09:01:06;1.70;;;1.20;;
12970;SDS011;6550;48.650;8.774;2023-08-30T09:03:54;1.10;;;1.10;;
12970;SDS011;6550;48.650;8.774;2023-08-30T09:06:21;1.27;;;1.17;;
12970;SDS011;6550;48.650;8.774;2023-08-30T09:08:50;2.20;;;1.20;;
12970;SDS011;6550;48.650;8.774;2023-08-30T09:11:17;1.40;;;1.03;;
12970;SDS011;6550;48.650;8.774;2023-08-30T09:13:44;1.23;;;1.17;;
12970;SDS011;6550;48.650;8.774;2023-08-30T09:16:11;1.80;;;1.30;;
12970;SDS011;6550;48.650;8.774;2023-08-30T09:18:41;3.27;;;1.23;;
12970;SDS011;6550;48.650;8.774;2023-08-30T09:21:18;1.10;;;1.10;;
12970;SDS011;6550;48.650;8.774;2023-08-30T09:23:56;2.07;;;1.30;;
12970;SDS011;6550;48.650;8.774;2023-08-30T09:26:30;1.77;;;1.40;;
12970;SDS011;6550;48.650;8.774;2023-08-30T09:29:03;1.57;;;1.47;;
12970;SDS011;6550;48.650;8.774;2023-08-30T09:31:33;1.00;;;1.00;;
12970;SDS011;6550;48.650;8.774;2023-08-30T09:34:04;1.50;;;1.40;;
12970;SDS011;6550;48.650;8.774;2023-08-30T09:36:38;1.40;;;1.30;;
12970;SDS011;6550;48.650;8.774;2023-08-30T09:39:09;1.27;;;1.17;;
12970;SDS011;6550;48.650;8.774;2023-08-30T09:41:42;1.60;;;1.50;;
12970;SDS011;6550;48.650;8.774;2023-08-30T09:44:11;1.47;;;1.37;;
12970;SDS011;6550;48.650;8.774;2023-08-30T09:46:45;2.60;;;1.53;;
12970;SDS011;6550;48.650;8.774;2023-08-30T09:49:22;1.30;;;1.20;;
12970;SDS011;6550;48.650;8.774;2023-08-30T09:51:50;1.50;;;1.40;;
12970;SDS011;6550;48.650;8.774;2023-08-30T09:54:22;2.60;;;1.40;;
12970;SDS011;6550;48.650;8.774;2023-08-30T09:57:10;1.50;;;1.40;;
12970;SDS011;6550;48.650;8.774;2023-08-30T09:59:37;1.57;;;1.20;;
12970;SDS011;6550;48.650;8.774;2023-08-30T10:02:11;1.60;;;1.50;;
12970;SDS011;6550;48.650;8.774;2023-08-30T10:04:40;1.53;;;1.43;;
12970;SDS011;6550;48.650;8.774;2023-08-30T10:07:11;1.57;;;1.47;;
12970;SDS011;6550;48.650;8.774;2023-08-30T10:09:44;1.17;;;1.07;;
12970;SDS011;6550;48.650;8.774;2023-08-30T10:12:31;1.40;;;1.30;;
12970;SDS011;6550;48.650;8.774;2023-08-30T10:14:59;1.57;;;1.47;;
12970;SDS011;6550;48.650;8.774;2023-08-30T10:17:27;1.27;;;1.17;;
12970;SDS011;6550;48.650;8.774;2023-08-30T10:19:59;1.27;;;1.23;;
12970;SDS011;6550;48.650;8.774;2023-08-30T10:22:38;1.10;;;1.00;;
12970;SDS011;6550;48.650;8.774;2023-08-30T10:25:08;1.40;;;1.30;;
12970;SDS011;6550;48.650;8.774;2023-08-30T10:27:39;2.20;;;1.30;;
12970;SDS011;6550;48.650;8.774;2023-08-30T10:30:10;1.63;;;1.23;;
12970;SDS011;6550;48.650;8.774;2023-08-30T10:32:42;1.53;;;1.00;;
12970;SDS011;6550;48.650;8.774;2023-08-30T10:35:17;1.40;;;1.30;;
12970;SDS011;6550;48.650;8.774;2023-08-30T10:38:02;2.13;;;1.70;;
12970;SDS011;6550;48.650;8.774;2023-08-30T10:40:31;1.60;;;1.50;;
12970;SDS011;6550;48.650;8.774;2023-08-30T10:43:01;1.70;;;1.60;;
12970;SDS011;6550;48.650;8.774;2023-08-30T10:45:30;1.60;;;1.20;;
12970;SDS011;6550;48.650;8.774;2023-08-30T10:47:59;1.27;;;1.10;;
12970;SDS011;6550;48.650;8.774;2023-08-30T10:50:27;1.50;;;1.40;;
12970;SDS011;6550;48.650;8.774;2023-08-30T10:53:12;1.77;;;1.67;;
12970;SDS011;6550;48.650;8.774;2023-08-30T10:56:02;1.60;;;1.50;;
12970;SDS011;6550;48.650;8.774;2023-08-30T10:58:38;1.27;;;1.07;;
12970;SDS011;6550;48.650;8.774;2023-08-30T11:01:17;1.20;;;1.10;;
12970;SDS011;6550;48.650;8.774;2023-08-30T11:03:45;2.37;;;1.47;;
12970;SDS011;6550;48.650;8.774;2023-08-30T11:06:15;1.73;;;1.63;;
12970;SDS011;6550;48.650;8.774;2023-08-30T11:08:49;1.77;;;1.53;;
12970;SDS011;6550;48.650;8.774;2023-08-30T11:11:16;1.40;;;1.30;;
12970;SDS011;6550;48.650;8.774;2023-08-30T11:13:43;1.87;;;1.40;;
12970;SDS011;6550;48.650;8.774;2023-08-30T11:16:10;1.53;;;1.43;;
12970;SDS011;6550;48.650;8.774;2023-08-30T11:18:39;1.92;;;1.60;;
12970;SDS011;6550;48.650;8.774;2023-08-30T11:21:11;2.90;;;1.57;;
12970;SDS011;6550;48.650;8.774;2023-08-30T11:23:41;1.70;;;1.60;;
12970;SDS011;6550;48.650;8.774;2023-08-30T11:26:11;3.33;;;1.73;;
12970;SDS011;6550;48.650;8.774;2023-08-30T11:28:42;1.93;;;1.60;;
12970;SDS011;6550;48.650;8.774;2023-08-30T11:31:26;1.67;;;1.57;;
12970;SDS011;6550;48.650;8.774;2023-08-30T11:33:56;2.80;;;1.60;;
12970;SDS011;6550;48.650;8.774;2023-08-30T11:36:26;3.17;;;1.60;;
12970;SDS011;6550;48.650;8.774;2023-08-30T11:38:58;1.47;;;1.37;;
12970;SDS011;6550;48.650;8.774;2023-08-30T11:41:27;1.93;;;1.60;;
12970;SDS011;6550;48.650;8.774;2023-08-30T11:43:57;2.40;;;1.50;;
12970;SDS011;6550;48.650;8.774;2023-08-30T11:46:27;1.83;;;1.53;;
12970;SDS011;6550;48.650;8.774;2023-08-30T11:48:58;1.60;;;1.30;;
12970;SDS011;6550;48.650;8.774;2023-08-30T11:51:29;1.50;;;1.40;;
12970;SDS011;6550;48.650;8.774;2023-08-30T11:53:57;1.77;;;1.67;;
12970;SDS011;6550;48.650;8.774;2023-08-30T11:56:27;2.63;;;1.70;;
12970;SDS011;6550;48.650;8.774;2023-08-30T11:59:00;1.75;;;1.65;;
12970;SDS011;6550;48.650;8.774;2023-08-30T12:01:28;1.30;;;1.20;;
12970;SDS011;6550;48.650;8.774;2023-08-30T12:03:57;1.53;;;1.40;;
12970;SDS011;6550;48.650;8.774;2023-08-30T12:06:26;1.63;;;1.30;;
12970;SDS011;6550;48.650;8.774;2023-08-30T12:08:59;1.50;;;1.40;;
12970;SDS011;6550;48.650;8.774;2023-08-30T12:11:31;3.70;;;1.13;;
12970;SDS011;6550;48.650;8.774;2023-08-30T12:14:03;2.13;;;1.23;;
12970;SDS011;6550;48.650;8.774;2023-08-30T12:16:33;2.20;;;1.30;;
12970;SDS011;6550;48.650;8.774;2023-08-30T12:19:09;1.03;;;1.03;;
12970;SDS011;6550;48.650;8.774;2023-08-30T12:21:40;3.47;;;1.10;;
12970;SDS011;6550;48.650;8.774;2023-08-30T12:24:31;1.70;;;1.30;;
12970;SDS011;6550;48.650;8.774;2023-08-30T12:27:16;2.03;;;1.50;;
12970;SDS011;6550;48.650;8.774;2023-08-30T12:29:43;1.17;;;1.07;;
12970;SDS011;6550;48.650;8.774;2023-08-30T12:32:10;1.40;;;1.10;;
12970;SDS011;6550;48.650;8.774;2023-08-30T12:34:41;1.30;;;1.03;;
12970;SDS011;6550;48.650;8.774;2023-08-30T12:37:08;1.20;;;1.10;;
12970;SDS011;6550;48.650;8.774;2023-08-30T12:39:35;1.60;;;1.50;;
12970;SDS011;6550;48.650;8.774;2023-08-30T12:42:02;1.80;;;1.30;;
12970;SDS011;6550;48.650;8.774;2023-08-30T12:44:31;1.70;;;1.50;;
12970;SDS011;6550;48.650;8.774;2023-08-30T12:47:00;1.50;;;1.40;;
12970;SDS011;6550;48.650;8.774;2023-08-30T12:49:26;1.63;;;1.50;;
12970;SDS011;6550;48.650;8.774;2023-08-30T12:51:53;1.50;;;1.40;;
12970;SDS011;6550;48.650;8.774;2023-08-30T12:54:22;1.27;;;1.00;;
12970;SDS011;6550;48.650;8.774;2023-08-30T12:56:49;1.30;;;1.20;;
12970;SDS011;6550;48.650;8.774;2023-08-30T12:59:16;1.40;;;1.30;;
12970;SDS011;6550;48.650;8.774;2023-08-30T13:01:45;1.40;;;1.30;;
12970;SDS011;6550;48.650;8.774;2023-08-30T13:04:14;1.43;;;1.10;;
12970;SDS011;6550;48.650;8.774;2023-08-30T13:06:42;1.75;;;1.45;;
12970;SDS011;6550;48.650;8.774;2023-08-30T13:09:10;1.43;;;1.30;;
12970;SDS011;6550;48.650;8.774;2023-08-30T13:11:38;1.30;;;1.20;;
12970;SDS011;6550;48.650;8.774;2023-08-30T13:14:04;2.13;;;1.30;;
12970;SDS011;6550;48.650;8.774;2023-08-30T13:16:33;1.50;;;1.40;;
12970;SDS011;6550;48.650;8.774;2023-08-30T13:19:02;1.40;;;1.30;;
12970;SDS011;6550;48.650;8.774;2023-08-30T13:21:34;1.47;;;1.37;;
12970;SDS011;6550;48.650;8.774;2023-08-30T13:24:07;1.40;;;1.30;;
12970;SDS011;6550;48.650;8.774;2023-08-30T13:26:36;1.60;;;1.50;;
12970;SDS011;6550;48.650;8.774;2023-08-30T13:29:08;1.80;;;1.20;;
12970;SDS011;6550;48.650;8.774;2023-08-30T13:31:34;2.03;;;1.60;;
12970;SDS011;6550;48.650;8.774;2023-08-30T13:34:06;1.70;;;1.60;;
12970;SDS011;6550;48.650;8.774;2023-08-30T13:36:33;2.57;;;1.40;;
12970;SDS011;6550;48.650;8.774;2023-08-30T13:39:00;1.50;;;1.20;;
12970;SDS011;6550;48.650;8.774;2023-08-30T13:41:28;1.80;;;1.30;;
12970;SDS011;6550;48.650;8.774;2023-08-30T13:44:00;2.30;;;1.20;;
12970;SDS011;6550;48.650;8.774;2023-08-30T13:46:33;1.77;;;1.58;;
12970;SDS011;6550;48.650;8.774;2023-08-30T13:49:00;4.33;;;1.30;;
12970;SDS011;6550;48.650;8.774;2023-08-30T13:51:31;3.90;;;1.40;;
12970;SDS011;6550;48.650;8.774;2023-08-30T13:53:58;2.00;;;1.00;;
12970;SDS011;6550;48.650;8.774;2023-08-30T13:56:27;1.73;;;1.57;;
12970;SDS011;6550;48.650;8.774;2023-08-30T13:58:58;2.35;;;1.30;;
12970;SDS011;6550;48.650;8.774;2023-08-30T14:01:25;1.77;;;1.27;;
12970;SDS011;6550;48.650;8.774;2023-08-30T14:03:54;1.20;;;1.20;;
12970;SDS011;6550;48.650;8.774;2023-08-30T14:06:21;1.33;;;1.23;;
12970;SDS011;6550;48.650;8.774;2023-08-30T14:08:48;3.43;;;1.53;;
12970;SDS011;6550;48.650;8.774;2023-08-30T14:11:14;1.40;;;1.30;;
12970;SDS011;6550;48.650;8.774;2023-08-30T14:13:41;2.60;;;1.43;;
12970;SDS011;6550;48.650;8.774;2023-08-30T14:16:11;1.60;;;1.50;;
12970;SDS011;6550;48.650;8.774;2023-08-30T14:18:43;2.60;;;1.27;;
12970;SDS011;6550;48.650;8.774;2023-08-30T14:21:09;1.43;;;1.10;;
12970;SDS011;6550;48.650;8.774;2023-08-30T14:23:36;1.20;;;1.10;;
12970;SDS011;6550;48.650;8.774;2023-08-30T14:26:11;1.00;;;0.90;;
12970;SDS011;6550;48.650;8.774;2023-08-30T14:28:39;1.83;;;1.30;;
12970;SDS011;6550;48.650;8.774;2023-08-30T14:31:09;1.30;;;1.20;;
12970;SDS011;6550;48.650;8.774;2023-08-30T14:33:44;1.97;;;1.20;;
12970;SDS011;6550;48.650;8.774;2023-08-30T14:36:13;1.50;;;1.40;;
12970;SDS011;6550;48.650;8.774;2023-08-30T14:38:42;3.53;;;1.20;;
12970;SDS011;6550;48.650;8.774;2023-08-30T14:41:13;1.83;;;1.23;;
12970;SDS011;6550;48.650;8.774;2023-08-30T14:43:42;1.20;;;1.10;;
12970;SDS011;6550;48.650;8.774;2023-08-30T14:46:09;2.27;;;1.50;;
12970;SDS011;6550;48.650;8.774;2023-08-30T14:48:40;1.77;;;1.43;;
12970;SDS011;6550;48.650;8.774;2023-08-30T14:51:07;1.60;;;1.30;;
12970;SDS011;6550;48.650;8.774;2023-08-30T14:53:37;1.70;;;1.60;;
12970;SDS011;6550;48.650;8.774;2023-08-30T14:56:03;1.30;;;1.17;;
12970;SDS011;6550;48.650;8.774;2023-08-30T14:58:34;6.40;;;1.20;;
12970;SDS011;6550;48.650;8.774;2023-08-30T15:01:04;3.30;;;1.30;;
12970;SDS011;6550;48.650;8.774;2023-08-30T15:03:31;2.60;;;1.30;;
12970;SDS011;6550;48.650;8.774;2023-08-30T15:05:59;1.93;;;1.20;;
12970;SDS011;6550;48.650;8.774;2023-08-30T15:08:31;1.47;;;1.17;;
12970;SDS011;6550;48.650;8.774;2023-08-30T15:10:58;1.30;;;1.20;;
12970;SDS011;6550;48.650;8.774;2023-08-30T15:13:25;2.30;;;1.80;;
12970;SDS011;6550;48.650;8.774;2023-08-30T15:15:54;1.85;;;1.75;;